createdAt,value
2023-04-20T00:00:11.561Z,7.75
2023-04-20T00:02:43.919Z,8.52
2023-04-20T00:05:12.923Z,6.65
2023-04-20T00:07:41.840Z,9.27
2023-04-20T00:10:11.384Z,6.35
2023-04-20T00:12:39.502Z,5.55
2023-04-20T00:15:08.520Z,6.85
2023-04-20T00:17:38.513Z,6.63
2023-04-20T00:20:09.978Z,6.93
2023-04-20T00:22:38.029Z,7.20
2023-04-20T00:25:09.674Z,6.10
2023-04-20T00:27:37.647Z,6.90
2023-04-20T00:30:06.456Z,6.88
2023-04-20T00:32:34.563Z,5.43
2023-04-20T00:35:02.576Z,5.85
2023-04-20T00:37:34.317Z,7.13
2023-04-20T00:40:02.231Z,6.78
2023-04-20T00:42:31.985Z,5.90
2023-04-20T00:45:00.338Z,7.80
2023-04-20T00:47:28.572Z,6.65
2023-04-20T00:49:56.905Z,7.72
2023-04-20T00:52:25.097Z,6.10
2023-04-20T00:54:54.821Z,7.55
2023-04-20T00:57:24.151Z,6.10
2023-04-20T00:59:52.608Z,6.30
2023-04-20T01:02:23.714Z,7.40
2023-04-20T01:04:51.982Z,5.53
2023-04-20T01:07:20.079Z,7.07
2023-04-20T01:09:50.674Z,6.05
2023-04-20T01:12:23.012Z,5.82
2023-04-20T01:14:51.135Z,5.72
2023-04-20T01:17:20.396Z,7.07
2023-04-20T01:19:49.281Z,5.97
2023-04-20T01:22:19.726Z,6.07
2023-04-20T01:24:47.906Z,7.30
2023-04-20T01:27:17.097Z,6.20
2023-04-20T01:29:46.032Z,8.40
2023-04-20T01:32:14.560Z,7.30
2023-04-20T01:34:42.704Z,8.50
2023-04-20T01:37:10.985Z,7.00
2023-04-20T01:39:41.970Z,6.57
2023-04-20T01:42:10.596Z,7.05
2023-04-20T01:44:38.638Z,6.90
2023-04-20T01:47:07.018Z,7.90
2023-04-20T01:49:35.096Z,8.77
2023-04-20T01:52:03.299Z,6.82
2023-04-20T01:54:31.424Z,7.63
2023-04-20T01:57:00.912Z,7.32
2023-04-20T01:59:29.352Z,5.82
2023-04-20T02:01:57.516Z,6.75
2023-04-20T02:04:26.084Z,9.32
2023-04-20T02:06:54.252Z,7.00
2023-04-20T02:09:22.581Z,6.80
2023-04-20T02:11:51.112Z,7.95
2023-04-20T02:14:20.752Z,6.43
2023-04-20T02:16:48.872Z,9.18
2023-04-20T02:19:20.089Z,5.15
2023-04-20T02:21:48.231Z,6.63
2023-04-20T02:24:16.531Z,7.63
2023-04-20T02:26:44.747Z,7.20
2023-04-20T02:29:13.567Z,6.90
2023-04-20T02:31:43.290Z,7.45
2023-04-20T02:34:11.642Z,6.95
2023-04-20T02:36:39.902Z,6.57
2023-04-20T02:39:08.085Z,9.05
2023-04-20T02:41:36.192Z,8.23
2023-04-20T02:44:05.300Z,6.13
2023-04-20T02:46:35.645Z,6.43
2023-04-20T02:49:05.387Z,7.35
2023-04-20T02:51:39.824Z,8.68
2023-04-20T02:54:08.249Z,7.18
2023-04-20T02:56:37.937Z,8.20
2023-04-20T02:59:10.122Z,7.60
2023-04-20T03:01:38.317Z,6.75
2023-04-20T03:04:14.424Z,8.15
2023-04-20T03:06:53.641Z,7.60
2023-04-20T03:09:28.111Z,7.40
2023-04-20T03:11:56.175Z,8.35
2023-04-20T03:14:50.661Z,7.93
2023-04-20T03:17:22.793Z,7.07
2023-04-20T03:19:54.775Z,6.85
2023-04-20T03:22:22.845Z,9.38
2023-04-20T03:24:55.174Z,7.03
2023-04-20T03:27:41.365Z,7.63
2023-04-20T03:30:14.235Z,8.70
2023-04-20T03:32:43.384Z,8.43
2023-04-20T03:35:12.946Z,7.28
2023-04-20T03:37:44.600Z,7.10
2023-04-20T03:40:13.860Z,6.78
2023-04-20T03:42:45.802Z,6.78
2023-04-20T03:45:16.230Z,6.45
2023-04-20T03:47:44.534Z,8.00
2023-04-20T03:50:14.378Z,7.55
2023-04-20T03:52:42.443Z,8.18
2023-04-20T03:55:12.061Z,6.82
2023-04-20T03:57:46.497Z,9.10
2023-04-20T04:00:16.466Z,8.88
2023-04-20T04:02:47.647Z,8.45
2023-04-20T04:05:24.030Z,7.75
2023-04-20T04:07:52.639Z,7.75
2023-04-20T04:10:21.644Z,9.23
2023-04-20T04:12:50.607Z,6.35
2023-04-20T04:15:20.403Z,9.18
2023-04-20T04:17:55.739Z,8.38
2023-04-20T04:20:25.932Z,7.50
2023-04-20T04:22:57.432Z,8.90
2023-04-20T04:25:51.938Z,9.40
2023-04-20T04:28:25.179Z,13.38
2023-04-20T04:31:12.432Z,8.32
2023-04-20T04:33:40.908Z,7.00
2023-04-20T04:36:11.782Z,10.20
2023-04-20T04:38:41.731Z,12.70
2023-04-20T04:41:10.245Z,10.18
2023-04-20T04:43:38.437Z,11.52
2023-04-20T04:46:18.135Z,9.07
2023-04-20T04:48:46.672Z,10.30
2023-04-20T04:51:16.344Z,11.38
2023-04-20T04:53:46.573Z,9.05
2023-04-20T04:56:15.907Z,10.32
2023-04-20T04:58:44.240Z,9.05
2023-04-20T05:01:12.939Z,11.45
2023-04-20T05:03:41.446Z,23.15
2023-04-20T05:06:09.575Z,24.50
2023-04-20T05:08:42.041Z,21.13
2023-04-20T05:11:10.922Z,20.33
2023-04-20T05:13:39.046Z,16.70
2023-04-20T05:16:07.602Z,15.38
2023-04-20T05:18:35.773Z,14.68
2023-04-20T05:21:04.172Z,11.25
2023-04-20T05:23:32.448Z,12.52
2023-04-20T05:26:02.255Z,11.25
2023-04-20T05:28:30.579Z,10.98
2023-04-20T05:30:58.756Z,9.68
2023-04-20T05:33:27.022Z,10.07
2023-04-20T05:35:57.187Z,9.85
2023-04-20T05:38:25.578Z,14.00
2023-04-20T05:40:53.832Z,10.25
2023-04-20T05:43:23.281Z,10.82
2023-04-20T05:45:51.928Z,9.00
2023-04-20T05:48:20.633Z,10.40
2023-04-20T05:50:48.692Z,8.55
2023-04-20T05:53:16.744Z,9.35
2023-04-20T05:55:44.830Z,10.82
2023-04-20T05:58:13.206Z,10.18
2023-04-20T06:00:42.633Z,13.38
2023-04-20T06:03:11.199Z,15.45
2023-04-20T06:05:39.576Z,9.80
2023-04-20T06:08:07.793Z,9.07
2023-04-20T06:10:36.064Z,11.23
2023-04-20T06:13:04.191Z,9.85
2023-04-20T06:15:32.333Z,9.70
2023-04-20T06:18:02.051Z,8.55
2023-04-20T06:20:30.695Z,12.00
2023-04-20T06:22:59.018Z,10.55
2023-04-20T06:25:29.620Z,11.40
2023-04-20T06:27:57.849Z,11.02
2023-04-20T06:30:25.918Z,11.15
2023-04-20T06:32:54.088Z,8.98
2023-04-20T06:35:23.965Z,9.68
2023-04-20T06:37:52.038Z,10.45
2023-04-20T06:40:20.515Z,10.68
2023-04-20T06:42:48.566Z,8.75
2023-04-20T06:45:18.370Z,9.43
2023-04-20T06:47:46.736Z,9.68
2023-04-20T06:50:17.965Z,9.55
2023-04-20T06:52:49.638Z,10.85
2023-04-20T06:55:19.819Z,10.75
2023-04-20T06:57:48.228Z,11.95
2023-04-20T07:00:17.612Z,11.73
2023-04-20T07:02:48.119Z,10.05
2023-04-20T07:05:17.355Z,8.07
2023-04-20T07:07:47.319Z,9.13
2023-04-20T07:10:16.473Z,9.95
2023-04-20T07:12:45.259Z,10.27
2023-04-20T07:15:14.093Z,8.90
2023-04-20T07:17:42.320Z,9.55
2023-04-20T07:20:11.304Z,11.32
2023-04-20T07:22:40.732Z,12.52
2023-04-20T07:25:12.204Z,8.93
2023-04-20T07:27:42.182Z,9.40
2023-04-20T07:30:13.921Z,11.10
2023-04-20T07:32:42.599Z,12.45
2023-04-20T07:35:11.483Z,9.52
2023-04-20T07:37:40.567Z,9.98
2023-04-20T07:40:11.523Z,8.70
2023-04-20T07:42:39.804Z,12.18
2023-04-20T07:45:09.000Z,10.48
2023-04-20T07:47:37.849Z,11.85
2023-04-20T07:50:07.387Z,10.55
2023-04-20T07:52:40.505Z,11.65
2023-04-20T07:55:14.097Z,10.93
2023-04-20T07:57:42.625Z,12.43
2023-04-20T08:00:12.816Z,12.25
2023-04-20T08:02:41.877Z,11.05
2023-04-20T08:05:11.113Z,9.88
2023-04-20T08:07:39.703Z,13.43
2023-04-20T08:10:10.818Z,12.70
2023-04-20T08:12:40.160Z,11.93
2023-04-20T08:15:10.053Z,10.82
2023-04-20T08:17:38.338Z,11.43
2023-04-20T08:20:07.916Z,11.00
2023-04-20T08:22:36.518Z,13.30
2023-04-20T08:25:05.168Z,11.07
2023-04-20T08:27:35.938Z,9.38
2023-04-20T08:30:05.363Z,12.25
2023-04-20T08:32:35.197Z,11.20
2023-04-20T08:35:03.801Z,14.07
2023-04-20T08:37:33.066Z,11.55
2023-04-20T08:40:04.191Z,9.82
2023-04-20T08:42:32.575Z,13.50
2023-04-20T08:45:02.105Z,11.95
2023-04-20T08:47:30.630Z,11.15
2023-04-20T08:50:01.340Z,11.45
2023-04-20T08:52:29.512Z,11.10
2023-04-20T08:55:03.856Z,12.23
2023-04-20T08:57:32.258Z,11.48
2023-04-20T09:00:00.441Z,10.20
2023-04-20T09:02:30.357Z,13.15
2023-04-20T09:05:06.084Z,11.68
2023-04-20T09:07:34.639Z,11.15
2023-04-20T09:10:02.829Z,12.82
2023-04-20T09:12:42.087Z,11.38
2023-04-20T09:15:11.696Z,10.50
2023-04-20T09:17:41.864Z,11.45
2023-04-20T09:20:11.426Z,12.55
2023-04-20T09:22:39.974Z,13.68
2023-04-20T09:25:21.181Z,10.25
2023-04-20T09:27:56.980Z,11.40
2023-04-20T09:30:25.437Z,11.73
2023-04-20T09:33:04.454Z,10.90
2023-04-20T09:35:32.587Z,10.13
2023-04-20T09:38:01.029Z,10.85
2023-04-20T09:40:30.275Z,11.15
2023-04-20T09:43:03.775Z,11.90
2023-04-20T09:45:32.882Z,11.45
2023-04-20T09:48:01.966Z,11.30
2023-04-20T09:50:45.635Z,14.52
2023-04-20T09:53:17.982Z,10.98
2023-04-20T09:55:48.408Z,14.32
2023-04-20T09:58:19.733Z,12.70
2023-04-20T10:00:48.056Z,14.23
2023-04-20T10:03:19.314Z,11.45
2023-04-20T10:05:50.155Z,12.43
2023-04-20T10:08:20.551Z,9.70
2023-04-20T10:10:50.238Z,13.88
2023-04-20T10:13:23.255Z,11.20
2023-04-20T10:15:51.570Z,11.43
2023-04-20T10:18:24.959Z,10.95
2023-04-20T10:21:09.916Z,11.20
2023-04-20T10:23:48.895Z,12.13
2023-04-20T10:26:17.177Z,10.15
2023-04-20T10:28:46.489Z,13.73
2023-04-20T10:31:17.135Z,10.85
2023-04-20T10:33:53.749Z,12.57
2023-04-20T10:36:29.963Z,11.20
2023-04-20T10:38:58.832Z,13.27
2023-04-20T10:41:27.275Z,11.35
2023-04-20T10:43:55.286Z,13.80
2023-04-20T10:46:24.657Z,13.25
2023-04-20T10:48:56.906Z,12.60
2023-04-20T10:51:26.755Z,12.10
2023-04-20T10:54:03.687Z,11.02
2023-04-20T10:56:38.669Z,12.40
2023-04-20T10:59:11.409Z,13.10
2023-04-20T11:01:39.948Z,11.00
2023-04-20T11:04:08.308Z,10.57
2023-04-20T11:06:38.114Z,11.77
2023-04-20T11:09:18.646Z,11.43
2023-04-20T11:11:47.182Z,11.65
2023-04-20T11:14:15.741Z,11.35
2023-04-20T11:16:53.687Z,11.98
2023-04-20T11:19:27.059Z,14.73
2023-04-20T11:21:57.105Z,12.65
2023-04-20T11:24:27.059Z,17.83
2023-04-20T11:26:57.026Z,13.73
2023-04-20T11:29:30.057Z,14.02
2023-04-20T11:31:59.144Z,13.20
2023-04-20T11:34:27.429Z,12.68
2023-04-20T11:36:57.362Z,11.13
2023-04-20T11:39:26.421Z,10.90
2023-04-20T11:41:56.603Z,15.35
2023-04-20T11:44:26.038Z,12.60
2023-04-20T11:46:57.192Z,11.60
2023-04-20T11:49:27.701Z,12.45
2023-04-20T11:51:57.195Z,13.27
2023-04-20T11:54:27.400Z,11.68
2023-04-20T11:56:55.604Z,9.73
2023-04-20T11:59:24.163Z,11.45
2023-04-20T12:01:52.352Z,10.20
2023-04-20T12:04:21.033Z,8.95
2023-04-20T12:06:49.449Z,9.73
2023-04-20T12:09:19.324Z,8.70
2023-04-20T12:11:47.544Z,8.70
2023-04-20T12:14:16.006Z,9.30
2023-04-20T12:16:44.334Z,9.23
2023-04-20T12:19:12.877Z,9.43
2023-04-20T12:21:41.269Z,9.52
2023-04-20T12:24:09.507Z,9.88
2023-04-20T12:26:45.305Z,9.88
2023-04-20T12:29:13.577Z,9.65
2023-04-20T12:31:41.807Z,14.20
2023-04-20T12:34:10.188Z,15.40
2023-04-20T12:36:38.424Z,12.60
2023-04-20T12:39:06.636Z,9.75
2023-04-20T12:41:34.751Z,12.52
2023-04-20T12:44:07.036Z,17.35
2023-04-20T12:46:36.440Z,12.40
2023-04-20T12:49:04.972Z,12.38
2023-04-20T12:51:33.251Z,13.38
2023-04-20T12:54:01.396Z,14.43
2023-04-20T12:56:29.624Z,11.20
2023-04-20T12:58:57.699Z,11.15
2023-04-20T13:01:27.667Z,15.85
2023-04-20T13:03:56.657Z,13.70
2023-04-20T13:06:26.491Z,25.77
2023-04-20T13:08:54.787Z,16.67
2023-04-20T13:11:24.168Z,10.57
2023-04-20T13:13:53.592Z,14.50
2023-04-20T13:16:21.766Z,17.35
2023-04-20T13:18:51.770Z,22.20
2023-04-20T13:21:20.022Z,18.73
2023-04-20T13:23:48.333Z,18.98
2023-04-20T13:26:16.482Z,11.15
2023-04-20T13:28:44.935Z,13.07
2023-04-20T13:31:13.083Z,14.70
2023-04-20T13:33:41.423Z,12.60
2023-04-20T13:36:11.380Z,11.77
2023-04-20T13:38:39.594Z,14.20
2023-04-20T13:41:07.722Z,12.88
2023-04-20T13:43:35.876Z,17.25
2023-04-20T13:46:04.499Z,20.00
2023-04-20T13:48:32.636Z,16.27
2023-04-20T13:51:00.749Z,13.00
2023-04-20T13:53:30.432Z,14.02
2023-04-20T13:55:59.139Z,12.68
2023-04-20T13:58:28.558Z,11.85
2023-04-20T14:00:56.718Z,14.73
2023-04-20T14:03:26.640Z,11.38
2023-04-20T14:05:54.940Z,12.98
2023-04-20T14:08:23.577Z,11.65
2023-04-20T14:10:53.180Z,9.95
2023-04-20T14:13:21.679Z,13.35
2023-04-20T14:15:49.966Z,13.38
2023-04-20T14:18:18.365Z,14.18
2023-04-20T14:20:46.778Z,12.10
2023-04-20T14:23:15.098Z,14.77
2023-04-20T14:25:43.329Z,12.13
2023-04-20T14:28:12.902Z,15.43
2023-04-20T14:30:41.300Z,13.90
2023-04-20T14:33:09.557Z,13.68
2023-04-20T14:35:37.642Z,11.65
2023-04-20T14:38:06.174Z,13.48
2023-04-20T14:40:34.506Z,13.20
2023-04-20T14:43:02.747Z,12.45
2023-04-20T14:45:32.537Z,18.25
2023-04-20T14:48:00.974Z,14.27
2023-04-20T14:50:29.122Z,15.60
2023-04-20T14:52:57.231Z,13.55
2023-04-20T14:55:26.018Z,20.15
2023-04-20T14:57:56.942Z,13.27
2023-04-20T15:00:28.253Z,18.52
2023-04-20T15:02:59.877Z,16.65
2023-04-20T15:05:29.262Z,14.15
2023-04-20T15:07:58.435Z,15.82
2023-04-20T15:10:26.930Z,14.18
2023-04-20T15:12:55.307Z,14.02
2023-04-20T15:15:23.570Z,12.73
2023-04-20T15:17:51.801Z,15.32
2023-04-20T15:20:21.546Z,12.70
2023-04-20T15:22:49.853Z,13.95
2023-04-20T15:25:18.106Z,17.65
2023-04-20T15:27:46.263Z,14.57
2023-04-20T15:30:14.971Z,19.45
2023-04-20T15:32:44.040Z,16.10
2023-04-20T15:35:12.529Z,14.32
2023-04-20T15:37:42.220Z,19.63
2023-04-20T15:40:11.108Z,22.83
2023-04-20T15:42:41.218Z,13.60
2023-04-20T15:45:10.629Z,14.32
2023-04-20T15:47:38.836Z,15.75
2023-04-20T15:50:07.941Z,15.70
2023-04-20T15:52:36.401Z,16.35
2023-04-20T15:55:07.049Z,15.48
2023-04-20T15:57:35.364Z,18.25
2023-04-20T16:00:04.537Z,19.90
2023-04-20T16:02:40.129Z,20.67
2023-04-20T16:05:09.649Z,20.48
2023-04-20T16:07:37.861Z,16.65
2023-04-20T16:10:09.631Z,17.38
2023-04-20T16:12:38.244Z,14.82
2023-04-20T16:15:07.498Z,16.63
2023-04-20T16:17:35.893Z,14.05
2023-04-20T16:20:04.656Z,10.95
2023-04-20T16:22:32.870Z,13.35
2023-04-20T16:25:01.157Z,10.75
2023-04-20T16:27:30.946Z,11.95
2023-04-20T16:29:59.525Z,14.00
2023-04-20T16:32:28.036Z,13.93
2023-04-20T16:34:56.636Z,13.45
2023-04-20T16:37:24.851Z,12.40
2023-04-20T16:39:52.924Z,11.75
2023-04-20T16:42:21.583Z,12.45
2023-04-20T16:44:51.212Z,11.90
2023-04-20T16:47:19.395Z,12.55
2023-04-20T16:49:47.721Z,14.13
2023-04-20T16:52:15.844Z,14.88
2023-04-20T16:54:44.321Z,13.82
2023-04-20T16:57:12.476Z,16.55
2023-04-20T16:59:40.739Z,14.65
2023-04-20T17:02:10.483Z,14.23
2023-04-20T17:04:38.730Z,12.90
2023-04-20T17:07:06.798Z,11.52
2023-04-20T17:09:35.120Z,13.68
2023-04-20T17:12:03.348Z,16.33
2023-04-20T17:14:32.291Z,13.98
2023-04-20T17:17:00.678Z,14.27
2023-04-20T17:19:30.780Z,15.65
2023-04-20T17:22:03.568Z,18.58
2023-04-20T17:24:31.701Z,13.70
2023-04-20T17:27:00.021Z,14.73
2023-04-20T17:29:30.559Z,13.60
2023-04-20T17:31:58.845Z,18.92
2023-04-20T17:34:27.245Z,14.05
2023-04-20T17:36:56.905Z,14.75
2023-04-20T17:39:26.014Z,13.65
2023-04-20T17:41:54.198Z,16.33
2023-04-20T17:44:22.598Z,13.52
2023-04-20T17:46:51.399Z,17.60
2023-04-20T17:49:19.721Z,14.55
2023-04-20T17:51:48.119Z,14.15
2023-04-20T17:54:18.031Z,16.40
2023-04-20T17:56:46.658Z,18.50
2023-04-20T17:59:17.626Z,16.77
2023-04-20T18:01:48.353Z,15.93
2023-04-20T18:04:16.704Z,18.90
2023-04-20T18:06:45.206Z,20.33
2023-04-20T18:09:14.156Z,21.50
2023-04-20T18:11:43.789Z,18.95
2023-04-20T18:14:11.943Z,18.05
2023-04-20T18:16:40.266Z,15.82
2023-04-20T18:19:08.533Z,18.35
2023-04-20T18:21:36.718Z,15.48
2023-04-20T18:24:10.079Z,14.18
2023-04-20T18:26:42.070Z,18.73
2023-04-20T18:29:15.352Z,15.85
2023-04-20T18:31:48.011Z,14.55
2023-04-20T18:34:19.648Z,15.55
2023-04-20T18:36:49.527Z,15.38
2023-04-20T18:39:22.368Z,16.40
2023-04-20T18:42:02.016Z,17.58
2023-04-20T18:44:37.145Z,16.88
2023-04-20T18:47:13.133Z,15.50
2023-04-20T18:49:46.594Z,16.92
2023-04-20T18:52:21.773Z,23.25
2023-04-20T18:54:59.220Z,19.25
2023-04-20T18:57:36.495Z,20.55
2023-04-20T19:00:14.834Z,16.48
2023-04-20T19:02:46.024Z,17.30
2023-04-20T19:05:16.928Z,17.35
2023-04-20T19:07:47.464Z,15.52
2023-04-20T19:10:18.732Z,17.02
2023-04-20T19:12:48.318Z,15.13
2023-04-20T19:15:25.585Z,16.10
2023-04-20T19:17:57.955Z,16.35
2023-04-20T19:20:28.822Z,19.88
2023-04-20T19:23:00.651Z,16.13
2023-04-20T19:25:31.174Z,15.52
2023-04-20T19:28:03.485Z,17.70
2023-04-20T19:30:38.631Z,15.75
2023-04-20T19:33:16.803Z,18.45
2023-04-20T19:35:55.976Z,18.52
2023-04-20T19:38:30.227Z,19.25
2023-04-20T19:41:04.452Z,18.75
2023-04-20T19:43:35.448Z,18.05
2023-04-20T19:46:11.021Z,17.58
2023-04-20T19:48:41.240Z,17.15
2023-04-20T19:51:11.873Z,17.13
2023-04-20T19:53:42.918Z,21.20
2023-04-20T19:56:19.638Z,17.30
2023-04-20T19:58:54.716Z,19.42
2023-04-20T20:01:35.493Z,20.05
2023-04-20T20:04:12.772Z,19.00
2023-04-20T20:06:52.467Z,18.95
2023-04-20T20:09:24.324Z,20.52
2023-04-20T20:11:54.677Z,20.30
2023-04-20T20:14:26.617Z,22.85
2023-04-20T20:17:00.507Z,23.73
2023-04-20T20:19:29.950Z,23.13
2023-04-20T20:21:58.074Z,23.75
2023-04-20T20:24:26.062Z,24.52
2023-04-20T20:26:54.182Z,23.05
2023-04-20T20:29:22.905Z,19.63
2023-04-20T20:31:51.306Z,20.90
2023-04-20T20:34:21.058Z,24.08
2023-04-20T20:36:49.141Z,19.75
2023-04-20T20:39:17.532Z,25.35
2023-04-20T20:41:46.615Z,22.08
2023-04-20T20:44:14.601Z,20.38
2023-04-20T20:46:42.692Z,21.42
2023-04-20T20:49:13.815Z,23.20
2023-04-20T20:51:43.197Z,25.80
2023-04-20T20:54:11.780Z,23.67
2023-04-20T20:56:39.763Z,26.27
2023-04-20T20:59:07.909Z,24.70
2023-04-20T21:01:35.876Z,26.40
2023-04-20T21:04:04.648Z,23.30
2023-04-20T21:06:33.777Z,22.50
2023-04-20T21:09:04.296Z,26.42
2023-04-20T21:11:32.317Z,31.33
2023-04-20T21:14:01.926Z,24.98
2023-04-20T21:16:30.366Z,24.38
2023-04-20T21:18:58.365Z,22.55
2023-04-20T21:21:27.421Z,23.05
2023-04-20T21:23:55.843Z,27.70
2023-04-20T21:26:25.219Z,23.10
2023-04-20T21:28:53.191Z,25.35
2023-04-20T21:31:21.171Z,24.60
2023-04-20T21:33:49.106Z,25.73
2023-04-20T21:36:17.100Z,19.38
2023-04-20T21:38:45.349Z,23.70
2023-04-20T21:41:13.322Z,22.23
2023-04-20T21:43:45.537Z,24.00
2023-04-20T21:46:15.489Z,21.52
2023-04-20T21:48:43.649Z,20.05
2023-04-20T21:51:18.409Z,28.70
2023-04-20T21:53:46.700Z,26.33
2023-04-20T21:56:15.650Z,22.92
2023-04-20T21:58:44.995Z,25.13
2023-04-20T22:01:13.037Z,23.55
2023-04-20T22:03:41.363Z,22.55
2023-04-20T22:06:09.596Z,23.77
2023-04-20T22:08:39.800Z,25.92
2023-04-20T22:11:08.065Z,24.88
2023-04-20T22:13:36.578Z,28.45
2023-04-20T22:16:07.023Z,34.92
2023-04-20T22:18:34.981Z,28.83
2023-04-20T22:21:03.367Z,30.08
2023-04-20T22:23:31.467Z,26.98
2023-04-20T22:25:59.384Z,28.77
2023-04-20T22:28:27.413Z,28.60
2023-04-20T22:30:55.728Z,33.17
2023-04-20T22:33:25.351Z,26.30
2023-04-20T22:35:53.663Z,27.85
2023-04-20T22:38:21.598Z,28.85
2023-04-20T22:40:49.578Z,31.83
2023-04-20T22:43:17.545Z,29.63
2023-04-20T22:45:45.639Z,25.25
2023-04-20T22:48:13.670Z,23.25
2023-04-20T22:50:43.014Z,23.08
2023-04-20T22:53:11.275Z,23.42
2023-04-20T22:55:39.221Z,22.45
2023-04-20T22:58:07.386Z,26.08
2023-04-20T23:00:35.778Z,25.65
2023-04-20T23:03:04.033Z,22.83
2023-04-20T23:05:32.033Z,24.13
2023-04-20T23:08:01.536Z,23.73
2023-04-20T23:10:32.556Z,20.13
2023-04-20T23:13:00.685Z,23.50
2023-04-20T23:15:28.608Z,23.80
2023-04-20T23:17:57.352Z,23.58
2023-04-20T23:20:25.936Z,19.88
2023-04-20T23:22:54.012Z,25.23
2023-04-20T23:25:23.315Z,23.30
2023-04-20T23:27:51.269Z,21.60
2023-04-20T23:30:22.396Z,23.02
2023-04-20T23:32:50.565Z,25.00
2023-04-20T23:35:18.900Z,21.83
2023-04-20T23:37:46.984Z,19.48
2023-04-20T23:40:15.190Z,22.85
2023-04-20T23:42:44.538Z,21.95
2023-04-20T23:45:13.350Z,27.05
2023-04-20T23:47:41.381Z,25.23
2023-04-20T23:50:10.485Z,24.55
2023-04-20T23:52:38.549Z,21.55
2023-04-20T23:55:07.313Z,20.65
2023-04-20T23:57:35.490Z,24.42
